Time;durP1;ratioP1;P1;durP2;ratioP2;P2;SDS_P1;SDS_P2;PMS_P1;PMS_P2;Temp;Humidity;BMP_temperature;BMP_pressure;BME280_temperature;BME280_humidity;BME280_pressure;Samples;Min_cycle;Max_cycle;Signal;HPM_P1;HPM_P2
2022/08/25 00:02:01;;;;;;;8.68;2.92;;;;;;;15.97;84.73;99632.33;1603511;89;21014;-65
2022/08/25 00:04:28;;;;;;;5.20;2.87;;;;;;;15.93;83.09;99630.82;1637427;87;21002;-65
2022/08/25 00:06:55;;;;;;;8.58;2.92;;;;;;;15.91;81.52;99633.53;1621743;88;21101;-65
2022/08/25 00:09:25;;;;;;;6.72;2.67;;;;;;;15.94;81.20;99632.05;1605937;88;21629;-65
2022/08/25 00:11:52;;;;;;;6.75;2.58;;;;;;;15.95;80.06;99627.17;1637395;87;20990;-65
2022/08/25 00:14:26;;;;;;;9.60;2.75;;;;;;;15.99;78.88;99626.49;1593130;90;21493;-65
2022/08/25 00:16:53;;;;;;;13.30;3.15;;;;;;;15.99;77.59;99626.02;1640345;87;21057;-66
2022/08/25 00:19:25;;;;;;;6.92;2.77;;;;;;;16.01;77.16;99626.78;1621829;88;20986;-66
2022/08/25 00:21:51;;;;;;;6.58;2.27;;;;;;;16.03;76.77;99635.41;1637392;87;21137;-65
2022/08/25 00:24:19;;;;;;;5.62;2.80;;;;;;;16.02;76.59;99629.78;1621634;88;20978;-65
2022/08/25 00:26:50;;;;;;;7.05;2.20;;;;;;;16.04;76.15;99629.22;1637477;87;21419;-65
2022/08/25 00:29:17;;;;;;;6.55;2.42;;;;;;;16.05;75.98;99624.34;1621749;88;21525;-65
2022/08/25 00:31:44;;;;;;;6.35;2.05;;;;;;;16.06;75.03;99622.09;1605876;89;21033;-65
2022/08/25 00:34:16;;;;;;;9.93;2.72;;;;;;;16.08;74.82;99622.01;1637449;87;21439;-65
2022/08/25 00:36:43;;;;;;;5.55;2.47;;;;;;;16.09;74.98;99623.23;1621911;88;21221;-65
2022/08/25 00:39:10;;;;;;;6.35;2.62;;;;;;;16.08;75.09;99625.94;1637412;87;20991;-65
2022/08/25 00:41:38;;;;;;;7.12;2.95;;;;;;;16.03;74.71;99624.06;1621768;88;21086;-65
2022/08/25 00:44:09;;;;;;;6.70;2.08;;;;;;;16.03;74.71;99624.06;1605857;89;21057;-65
2022/08/25 00:46:41;;;;;;;7.33;2.75;;;;;;;16.04;75.15;99630.53;1637627;87;21130;-65
2022/08/25 00:49:31;;;;;;;8.08;2.70;;;;;;;15.99;75.71;99622.09;1621534;88;21027;-65
2022/08/25 00:52:14;;;;;;;8.33;2.62;;;;;;;15.98;75.48;99616.97;1644601;87;21455;-65
2022/08/25 00:54:46;;;;;;;4.75;2.33;;;;;;;15.96;76.15;99616.22;1609997;89;20995;-66
2022/08/25 00:57:15;;;;;;;8.95;2.22;;;;;;;15.94;76.55;99615.46;1593005;89;21091;-66
2022/08/25 00:59:43;;;;;;;8.15;2.90;;;;;;;15.92;77.65;99621.27;1604074;89;21773;-66
2022/08/25 01:02:09;;;;;;;10.53;2.75;;;;;;;15.88;78.70;99619.29;1604040;89;21018;-66
2022/08/25 01:04:36;;;;;;;6.83;2.12;;;;;;;15.88;78.70;99619.29;1604180;89;21095;-66
2022/08/25 01:07:03;;;;;;;8.40;2.92;;;;;;;15.89;79.43;99625.38;1604113;89;21068;-66
2022/08/25 01:09:31;;;;;;;10.70;2.58;;;;;;;15.84;80.20;99614.70;1604122;89;21019;-65
2022/08/25 01:12:00;;;;;;;11.75;2.17;;;;;;;15.83;79.36;99620.87;1604119;89;21151;-65
2022/08/25 01:14:27;;;;;;;4.25;2.08;;;;;;;15.78;80.24;99616.87;1604006;88;21019;-65
2022/08/25 01:16:54;;;;;;;8.45;2.85;;;;;;;15.78;80.24;99616.87;1604019;89;21026;-65
2022/08/25 01:19:20;;;;;;;13.88;2.72;;;;;;;15.77;80.44;99618.64;1604120;89;21043;-65
2022/08/25 01:21:49;;;;;;;6.70;2.45;;;;;;;15.74;80.80;99616.67;1604057;89;21502;-65
2022/08/25 01:24:27;;;;;;;6.65;2.30;;;;;;;15.73;79.90;99616.30;1604080;88;21857;-65
2022/08/25 01:26:53;;;;;;;5.00;2.10;;;;;;;15.69;79.51;99611.70;1603772;89;21160;-65
2022/08/25 01:29:20;;;;;;;7.50;2.62;;;;;;;15.67;79.69;99614.88;1604108;89;21052;-65
2022/08/25 01:31:48;;;;;;;9.95;2.98;;;;;;;15.63;79.25;99613.36;1604107;89;21558;-65
2022/08/25 01:34:16;;;;;;;15.83;3.22;;;;;;;15.61;79.09;99613.92;1604057;89;21055;-65
2022/08/25 01:36:43;;;;;;;3.77;2.17;;;;;;;15.59;79.13;99605.30;1603963;89;21187;-65
2022/08/25 01:39:11;;;;;;;8.50;3.12;;;;;;;15.57;79.47;99606.36;1603971;89;21148;-65
2022/08/25 01:42:04;;;;;;;4.42;2.70;;;;;;;15.54;79.87;99609.12;1604055;89;21505;-65
2022/08/25 01:44:34;;;;;;;7.58;2.60;;;;;;;15.51;80.15;99613.61;1586312;89;21456;-65
2022/08/25 01:47:02;;;;;;;7.25;3.10;;;;;;;15.47;80.24;99611.25;1604249;89;21449;-66
2022/08/25 01:49:29;;;;;;;4.85;2.67;;;;;;;15.44;80.58;99614.89;1604174;88;22045;-65
2022/08/25 01:52:07;;;;;;;9.83;2.83;;;;;;;15.39;81.10;99618.24;1604032;89;21085;-65
2022/08/25 01:54:35;;;;;;;11.10;2.80;;;;;;;15.39;81.10;99618.24;1604011;89;21035;-65
2022/08/25 01:57:01;;;;;;;8.88;3.42;;;;;;;15.39;81.67;99614.78;1603975;88;21143;-65
2022/08/25 01:59:28;;;;;;;15.48;4.00;;;;;;;15.38;81.92;99617.05;1604061;89;21015;-66
2022/08/25 02:01:54;;;;;;;6.25;2.67;;;;;;;15.35;81.97;99615.92;1604046;89;21113;-65
2022/08/25 02:04:21;;;;;;;8.18;2.80;;;;;;;15.34;81.86;99614.23;1604047;89;20995;-65
2022/08/25 02:06:49;;;;;;;6.42;2.83;;;;;;;15.32;81.73;99616.94;1603996;89;20982;-65
2022/08/25 02:09:16;;;;;;;6.62;3.55;;;;;;;15.29;80.74;99612.34;1604173;89;21549;-65
2022/08/25 02:11:45;;;;;;;9.38;3.22;;;;;;;15.26;80.46;99618.59;1604248;89;21613;-65
2022/08/25 02:14:12;;;;;;;10.28;3.42;;;;;;;15.25;80.03;99618.69;1604068;89;21160;-65
2022/08/25 02:16:40;;;;;;;7.65;3.22;;;;;;;15.23;79.73;99616.61;1603947;89;20990;-65
2022/08/25 02:19:09;;;;;;;10.70;4.33;;;;;;;15.21;79.33;99619.78;1599920;89;21026;-65
2022/08/25 02:21:35;;;;;;;9.05;3.25;;;;;;;15.16;79.04;99618.30;1603932;89;21045;-65
2022/08/25 02:24:03;;;;;;;8.75;3.40;;;;;;;15.16;79.04;99618.30;1600324;88;21486;-65
2022/08/25 02:26:29;;;;;;;10.18;3.60;;;;;;;15.14;78.68;99614.08;1603995;89;21118;-65
2022/08/25 02:28:56;;;;;;;11.78;3.40;;;;;;;15.08;78.58;99614.42;1604179;89;21517;-65
2022/08/25 02:31:23;;;;;;;11.85;3.87;;;;;;;15.08;78.58;99614.42;1604073;89;20994;-65
2022/08/25 02:33:50;;;;;;;8.65;3.62;;;;;;;15.06;78.58;99618.44;1604000;88;20991;-65
2022/08/25 02:36:17;;;;;;;9.25;3.72;;;;;;;15.03;78.79;99614.68;1603991;89;21022;-65
2022/08/25 02:38:44;;;;;;;8.88;3.52;;;;;;;15.02;79.20;99618.70;1603956;89;21574;-65
2022/08/25 02:41:22;;;;;;;8.25;3.52;;;;;;;14.99;80.97;99617.55;1603981;89;21026;-65
2022/08/25 02:43:49;;;;;;;9.85;3.90;;;;;;;14.96;82.25;99614.67;1604092;89;21031;-65
2022/08/25 02:46:19;;;;;;;7.47;3.65;;;;;;;14.94;83.26;99615.69;1604073;89;21040;-66
2022/08/25 02:48:46;;;;;;;9.23;4.20;;;;;;;14.91;84.03;99610.16;1604038;89;21038;-65
2022/08/25 02:51:13;;;;;;;9.20;4.12;;;;;;;14.88;84.46;99609.02;1604032;89;21148;-65
2022/08/25 02:53:41;;;;;;;10.72;4.30;;;;;;;14.87;84.96;99615.64;1599801;89;21035;-66
2022/08/25 02:56:09;;;;;;;10.45;4.05;;;;;;;14.83;85.14;99613.66;1604180;89;21462;-65
2022/08/25 02:58:36;;;;;;;9.80;3.52;;;;;;;14.84;85.34;99620.59;1603832;87;21051;-65
2022/08/25 03:01:04;;;;;;;11.15;5.47;;;;;;;14.82;85.46;99619.36;1603966;89;21088;-65
2022/08/25 03:03:30;;;;;;;9.43;4.15;;;;;;;14.82;85.16;99615.89;1599886;89;21165;-65
2022/08/25 03:05:57;;;;;;;13.18;3.90;;;;;;;14.81;84.59;99622.91;1604021;89;21013;-65
2022/08/25 03:08:23;;;;;;;12.43;3.58;;;;;;;14.80;84.45;99619.91;1604074;88;21071;-65
2022/08/25 03:10:50;;;;;;;13.38;4.10;;;;;;;14.79;84.42;99617.38;1604185;89;21009;-65
2022/08/25 03:13:17;;;;;;;15.60;3.92;;;;;;;14.79;84.53;99622.61;1604124;89;21047;-65
2022/08/25 03:15:44;;;;;;;12.03;4.30;;;;;;;14.78;84.85;99615.25;1604182;89;21214;-65
2022/08/25 03:18:12;;;;;;;11.68;4.60;;;;;;;14.76;85.17;99609.26;1604147;89;21456;-65
2022/08/25 03:20:39;;;;;;;9.53;4.42;;;;;;;14.78;85.55;99619.64;1604163;89;21002;-65
2022/08/25 03:23:06;;;;;;;8.40;3.80;;;;;;;14.80;85.97;99609.44;1604071;89;21035;-65
2022/08/25 03:28:18;;;;;;;12.20;4.30;;;;;;;14.98;86.50;99613.28;1604208;89;21185;-66
2022/08/25 03:30:45;;;;;;;12.82;4.10;;;;;;;15.13;86.42;99613.23;1604012;89;21030;-67
2022/08/25 03:33:11;;;;;;;9.70;3.60;;;;;;;15.56;85.28;99613.84;1604185;89;21052;-67
2022/08/25 03:35:38;;;;;;;9.03;3.92;;;;;;;15.56;85.28;99613.84;1604071;89;21057;-66
2022/08/25 03:38:04;;;;;;;8.75;4.03;;;;;;;15.80;83.44;99611.03;1604214;89;21059;-67
2022/08/25 03:40:31;;;;;;;9.45;4.42;;;;;;;16.05;81.72;99600.73;1604095;89;21088;-66
2022/08/25 03:42:58;;;;;;;10.65;4.30;;;;;;;16.65;78.47;99608.34;1604099;89;21495;-66
2022/08/25 03:45:25;;;;;;;9.50;4.55;;;;;;;16.65;78.47;99608.34;1604183;89;21078;-66
2022/08/25 03:47:52;;;;;;;10.60;4.15;;;;;;;16.92;77.17;99600.94;1604146;88;21505;-67
2022/08/25 03:50:20;;;;;;;7.58;4.22;;;;;;;17.16;75.36;99605.44;1604116;89;21001;-66
2022/08/25 03:52:55;;;;;;;10.25;4.45;;;;;;;17.42;73.65;99604.14;1604162;89;21540;-66
2022/08/25 03:55:23;;;;;;;8.95;4.65;;;;;;;17.69;72.51;99598.84;1604150;89;21477;-66
2022/08/25 03:57:51;;;;;;;9.50;4.08;;;;;;;18.00;70.95;99604.13;1610066;87;21050;-66
2022/08/25 04:00:18;;;;;;;12.07;4.58;;;;;;;18.27;69.75;99597.40;1612884;89;21075;-67
2022/08/25 04:02:44;;;;;;;9.48;4.75;;;;;;;18.55;67.81;99597.97;1597382;89;21074;-66
2022/08/25 04:05:11;;;;;;;10.18;4.50;;;;;;;18.78;66.68;99601.59;1628701;88;21974;-66
2022/08/25 04:07:38;;;;;;;9.90;4.70;;;;;;;19.03;65.54;99598.45;1612793;89;20986;-66
2022/08/25 04:10:09;;;;;;;7.25;4.40;;;;;;;19.28;64.32;99595.19;1597676;89;21013;-67
2022/08/25 04:12:35;;;;;;;9.90;4.62;;;;;;;19.51;63.50;99597.92;1628726;88;21067;-65
2022/08/25 04:15:05;;;;;;;9.90;4.75;;;;;;;19.72;62.42;99596.76;1612827;89;21026;-65
2022/08/25 04:17:31;;;;;;;11.18;5.03;;;;;;;19.87;61.24;99600.36;1637784;87;21755;-66
2022/08/25 04:19:58;;;;;;;7.33;4.20;;;;;;;20.02;60.72;99594.36;1612762;89;20998;-65
2022/08/25 04:22:25;;;;;;;12.40;4.67;;;;;;;20.20;60.03;99586.78;1597488;89;21522;-66
2022/08/25 04:24:51;;;;;;;10.45;4.50;;;;;;;20.45;59.77;99590.98;1628609;88;20979;-65
2022/08/25 04:27:18;;;;;;;14.23;4.42;;;;;;;20.77;58.88;99589.73;1613023;89;21451;-65
2022/08/25 04:29:45;;;;;;;12.18;4.90;;;;;;;20.99;57.66;99590.45;1597443;89;21213;-66
2022/08/25 04:32:12;;;;;;;8.00;4.53;;;;;;;21.15;57.97;99585.24;1628540;88;20995;-66
2022/08/25 04:34:40;;;;;;;14.23;5.20;;;;;;;21.46;56.72;99581.72;1612911;89;21027;-65
2022/08/25 04:37:07;;;;;;;12.15;4.87;;;;;;;21.69;55.93;99583.73;1597357;89;21033;-65
2022/08/25 04:39:34;;;;;;;8.75;4.47;;;;;;;21.87;55.68;99581.31;1628689;88;21601;-66
2022/08/25 04:42:01;;;;;;;10.95;4.80;;;;;;;22.09;55.16;99578.52;1612791;89;21253;-66
2022/08/25 04:44:29;;;;;;;15.38;5.12;;;;;;;22.32;54.40;99575.17;1601957;89;21093;-65
2022/08/25 04:46:55;;;;;;;10.20;4.75;;;;;;;22.46;54.54;99573.94;1634099;86;21058;-65
2022/08/25 04:49:22;;;;;;;9.28;4.62;;;;;;;22.60;52.80;99583.66;1612909;89;21042;-66
2022/08/25 04:51:49;;;;;;;9.58;4.55;;;;;;;22.64;52.64;99575.78;1597357;89;21022;-65
2022/08/25 04:54:20;;;;;;;10.85;4.22;;;;;;;22.76;52.69;99577.00;1631747;86;21254;-65
2022/08/25 04:56:45;;;;;;;24.35;12.13;;;;;;;22.82;52.90;99577.78;1612699;88;21051;-66
2022/08/25 04:59:14;;;;;;;12.82;5.17;;;;;;;22.84;53.31;99570.53;1578881;90;21009;-66
2022/08/25 05:01:42;;;;;;;12.20;5.05;;;;;;;22.90;52.38;99570.83;1639820;87;21002;-65
2022/08/25 05:04:10;;;;;;;7.85;4.72;;;;;;;23.02;52.11;99576.81;1608089;89;21006;-65
2022/08/25 05:06:37;;;;;;;10.55;4.78;;;;;;;23.09;51.28;99573.13;1585745;90;21172;-66
2022/08/25 05:09:05;;;;;;;8.03;4.45;;;;;;;23.03;51.63;99571.86;1639695;87;21082;-66
2022/08/25 05:11:31;;;;;;;14.85;4.75;;;;;;;22.83;51.86;99566.20;1604304;89;21543;-66
2022/08/25 05:14:00;;;;;;;10.88;4.22;;;;;;;22.68;52.54;99564.42;1577242;90;21005;-65
2022/08/25 05:16:29;;;;;;;7.87;4.60;;;;;;;22.61;53.27;99564.61;1639727;87;21038;-65
2022/08/25 05:18:56;;;;;;;7.50;3.95;;;;;;;22.54;53.31;99570.13;1608072;89;21162;-65
2022/08/25 05:21:25;;;;;;;11.20;4.58;;;;;;;22.48;53.92;99568.02;1585632;90;20996;-65
2022/08/25 05:23:56;;;;;;;8.88;4.80;;;;;;;22.42;53.52;99569.88;1639866;87;20986;-66
2022/08/25 05:26:24;;;;;;;9.83;4.33;;;;;;;22.36;53.46;99565.15;1608072;89;20987;-65
2022/08/25 05:28:52;;;;;;;7.53;4.40;;;;;;;22.23;54.41;99561.40;1585745;90;21041;-65
2022/08/25 05:31:20;;;;;;;8.90;4.00;;;;;;;22.10;54.14;99560.33;1639712;87;21137;-65
2022/08/25 05:33:46;;;;;;;11.80;5.00;;;;;;;21.98;54.62;99562.19;1607992;89;21034;-66
2022/08/25 05:36:14;;;;;;;12.50;5.10;;;;;;;21.92;54.92;99563.23;1585627;90;32942;-65
2022/08/25 05:38:41;;;;;;;10.55;4.42;;;;;;;21.82;55.38;99559.20;1639672;87;21050;-65
2022/08/25 05:41:11;;;;;;;11.15;5.00;;;;;;;21.72;55.57;99562.78;1608139;89;21023;-65
2022/08/25 05:43:40;;;;;;;6.35;4.53;;;;;;;21.63;56.06;99557.30;1585651;90;21153;-65
2022/08/25 05:46:07;;;;;;;13.58;4.37;;;;;;;21.57;56.56;99558.33;1639631;87;21510;-65
2022/08/25 05:48:34;;;;;;;10.82;5.10;;;;;;;21.53;56.60;99558.23;1603915;89;21078;-65
2022/08/25 05:51:03;;;;;;;6.92;4.40;;;;;;;21.52;56.70;99555.23;1577229;90;21061;-65
2022/08/25 05:53:32;;;;;;;10.32;5.00;;;;;;;21.51;56.34;99552.23;1639875;87;20986;-66
2022/08/25 05:55:59;;;;;;;12.43;4.80;;;;;;;21.45;56.72;99562.00;1608094;89;21231;-65
2022/08/25 05:58:27;;;;;;;12.60;4.50;;;;;;;21.39;56.87;99558.06;1595182;87;21204;-66
2022/08/25 06:00:54;;;;;;;13.18;5.08;;;;;;;21.33;56.82;99556.44;1612849;88;21122;-65
2022/08/25 06:03:21;;;;;;;10.75;4.97;;;;;;;21.28;57.25;99553.69;1597222;89;21046;-66
2022/08/25 06:05:48;;;;;;;8.90;4.50;;;;;;;21.27;57.55;99558.63;1628646;88;20983;-66
2022/08/25 06:08:14;;;;;;;10.98;4.58;;;;;;;21.26;57.84;99555.62;1612841;89;21854;-66
2022/08/25 06:10:41;;;;;;;7.42;4.35;;;;;;;21.26;57.75;99560.08;1597255;89;20990;-65
2022/08/25 06:13:08;;;;;;;10.35;4.67;;;;;;;21.28;57.64;99562.95;1628504;88;20991;-65
2022/08/25 06:15:35;;;;;;;11.73;5.15;;;;;;;21.31;58.36;99568.47;1612812;89;21545;-65
2022/08/25 06:18:02;;;;;;;7.80;4.33;;;;;;;21.36;58.38;99562.31;1597465;89;21026;-65
2022/08/25 06:20:30;;;;;;;8.58;4.65;;;;;;;21.43;57.81;99559.97;1628597;87;21275;-66
2022/08/25 06:22:57;;;;;;;11.15;4.55;;;;;;;21.47;57.36;99555.61;1585999;90;21081;-66
2022/08/25 06:25:26;;;;;;;10.05;4.67;;;;;;;21.54;57.83;99558.59;1628618;88;21082;-66
2022/08/25 06:27:54;;;;;;;8.20;4.90;;;;;;;21.63;57.75;99568.38;1612766;89;21046;-66
2022/08/25 06:30:21;;;;;;;9.10;4.33;;;;;;;21.68;57.35;99563.53;1597330;89;21018;-66
2022/08/25 06:32:48;;;;;;;7.28;4.83;;;;;;;21.74;57.58;99564.82;1628483;88;21157;-66
2022/08/25 06:35:17;;;;;;;12.37;5.08;;;;;;;21.83;57.16;99562.69;1612711;89;21094;-65
2022/08/25 06:37:45;;;;;;;8.08;3.98;;;;;;;21.91;57.47;99565.52;1597357;89;21034;-65
2022/08/25 06:40:12;;;;;;;9.30;4.45;;;;;;;22.00;57.29;99562.09;1628485;88;21027;-65
2022/08/25 06:42:39;;;;;;;8.03;4.40;;;;;;;22.07;57.35;99571.67;1628879;88;20998;-66
2022/08/25 06:45:09;;;;;;;7.33;4.80;;;;;;;22.14;57.56;99561.74;1597233;89;21258;-65
2022/08/25 06:47:37;;;;;;;12.15;4.80;;;;;;;22.26;57.61;99563.78;1628517;88;20998;-66
2022/08/25 06:50:05;;;;;;;8.33;4.85;;;;;;;22.38;57.09;99557.42;1612782;89;21118;-66
2022/08/25 06:52:32;;;;;;;10.82;5.15;;;;;;;22.50;56.17;99555.47;1628507;88;21452;-66
2022/08/25 06:54:59;;;;;;;6.40;4.40;;;;;;;22.60;55.63;99552.33;1613941;89;21006;-65
2022/08/25 06:57:25;;;;;;;11.30;4.12;;;;;;;22.70;55.28;99550.55;1586063;89;21087;-65
2022/08/25 06:59:53;;;;;;;9.38;4.92;;;;;;;22.81;55.79;99546.45;1594293;88;20995;-65
2022/08/25 07:02:19;;;;;;;12.88;4.53;;;;;;;22.96;55.59;99545.56;1612656;89;21511;-65
2022/08/25 07:04:47;;;;;;;10.55;5.03;;;;;;;23.08;54.42;99546.23;1597338;89;21050;-65
2022/08/25 07:07:14;;;;;;;7.00;4.70;;;;;;;23.18;54.41;99547.89;1628583;88;21538;-66
2022/08/25 07:09:41;;;;;;;17.75;5.08;;;;;;;23.28;53.40;99542.58;1612724;89;21165;-66
2022/08/25 07:12:08;;;;;;;9.88;4.42;;;;;;;23.38;52.54;99542.58;1597294;89;21038;-66
2022/08/25 07:14:35;;;;;;;10.90;4.35;;;;;;;23.46;52.69;99540.03;1628742;88;21502;-66
2022/08/25 07:17:04;;;;;;;14.50;4.15;;;;;;;23.58;52.69;99541.06;1612730;89;21011;-65
2022/08/25 07:19:31;;;;;;;5.42;3.98;;;;;;;23.70;51.82;99529.78;1586221;89;20994;-65
2022/08/25 07:21:58;;;;;;;6.92;4.00;;;;;;;23.84;50.11;99533.77;1628705;88;21111;-64
2022/08/25 07:24:25;;;;;;;8.95;4.28;;;;;;;23.94;49.98;99530.60;1628997;88;21561;-65
2022/08/25 07:26:51;;;;;;;9.73;4.05;;;;;;;24.07;49.83;99531.58;1637551;87;21423;-66
2022/08/25 07:29:22;;;;;;;9.23;3.83;;;;;;;24.18;50.17;99528.73;1612240;89;20986;-66
2022/08/25 07:31:49;;;;;;;5.10;3.58;;;;;;;24.29;49.17;99522.73;1597136;89;20998;-66
2022/08/25 07:37:03;;;;;;;11.50;4.10;;;;;;;24.55;47.23;99519.35;1612470;89;21467;-65
2022/08/25 07:39:31;;;;;;;5.42;3.35;;;;;;;24.69;46.86;99519.66;1597088;89;21532;-65
2022/08/25 07:41:58;;;;;;;7.15;3.80;;;;;;;24.84;45.28;99517.28;1628226;88;21038;-65
2022/08/25 07:44:25;;;;;;;12.95;3.83;;;;;;;24.96;45.52;99512.61;1612505;89;21105;-65
2022/08/25 07:46:53;;;;;;;9.03;3.83;;;;;;;25.07;45.50;99507.02;1628235;88;21102;-66
2022/08/25 07:49:21;;;;;;;6.53;3.65;;;;;;;25.20;44.39;99505.27;1612703;89;21048;-65
2022/08/25 07:51:47;;;;;;;5.92;3.33;;;;;;;25.32;44.57;99506.21;1597184;89;21065;-65
2022/08/25 07:54:14;;;;;;;6.25;3.47;;;;;;;25.46;43.53;99502.62;1626827;88;21062;-66
2022/08/25 07:56:42;;;;;;;7.08;3.30;;;;;;;25.59;43.62;99503.02;1610650;89;21487;-65
2022/08/25 07:59:09;;;;;;;7.03;2.98;;;;;;;25.69;42.62;99497.13;1637465;86;21110;-65
2022/08/25 08:01:36;;;;;;;6.50;3.12;;;;;;;25.79;42.57;99493.83;1609615;88;21091;-65
2022/08/25 08:04:03;;;;;;;7.28;3.70;;;;;;;25.92;41.83;99495.56;1600672;89;21460;-66
2022/08/25 08:06:34;;;;;;;4.92;3.12;;;;;;;26.06;41.13;99485.61;1588810;88;21042;-66
2022/08/25 08:09:01;;;;;;;11.18;3.60;;;;;;;26.17;41.27;99484.48;1624384;87;21062;-65
2022/08/25 08:11:33;;;;;;;7.70;3.60;;;;;;;26.29;41.96;99479.20;1610304;87;22144;-65
2022/08/25 08:14:01;;;;;;;5.10;3.17;;;;;;;26.43;41.65;99477.72;1637231;87;21113;-66
2022/08/25 08:16:28;;;;;;;8.13;3.50;;;;;;;26.57;41.45;99474.92;1604630;88;21704;-66
2022/08/25 08:18:56;;;;;;;8.18;3.17;;;;;;;26.67;40.12;99480.41;1623784;86;21113;-66
2022/08/25 08:21:30;;;;;;;7.75;3.10;;;;;;;26.75;41.04;99478.27;1610147;87;21006;-66
2022/08/25 08:23:57;;;;;;;10.38;3.08;;;;;;;26.82;37.82;99474.41;1638219;87;21196;-66
2022/08/25 08:26:24;;;;;;;10.75;3.30;;;;;;;26.91;37.43;99478.75;1613116;87;21062;-66
2022/08/25 08:28:50;;;;;;;17.25;2.90;;;;;;;27.02;37.39;99474.42;1593282;89;21045;-66
2022/08/25 08:31:19;;;;;;;12.15;3.02;;;;;;;27.15;36.03;99480.60;1605447;88;21057;-67
2022/08/25 08:33:48;;;;;;;5.20;2.67;;;;;;;27.23;36.59;99474.73;1610895;88;21583;-65
2022/08/25 08:36:15;;;;;;;7.33;3.22;;;;;;;27.29;36.31;99471.39;1634009;86;21516;-65
2022/08/25 08:38:42;;;;;;;13.40;3.02;;;;;;;27.35;36.55;99472.05;1614750;88;21071;-66
2022/08/25 08:44:11;;;;;;;6.85;3.20;;;;;;;27.52;36.15;99473.34;1629667;86;21068;-66
2022/08/25 08:47:07;;;;;;;4.58;2.70;;;;;;;27.62;36.88;99468.14;1630074;86;21132;-66
2022/08/25 08:50:06;;;;;;;11.43;3.00;;;;;;;27.72;35.07;99471.45;1637295;86;21271;-66
2022/08/25 08:52:47;;;;;;;5.65;2.47;;;;;;;27.81;33.88;99471.41;1630480;87;21006;-65
2022/08/25 08:55:39;;;;;;;7.10;3.10;;;;;;;27.92;33.61;99470.53;1629723;87;21660;-66
2022/08/25 08:58:29;;;;;;;6.60;2.40;;;;;;;28.04;34.15;99461.10;1629427;86;20978;-65
2022/08/25 09:01:00;;;;;;;12.63;2.75;;;;;;;28.19;33.21;99465.69;1632669;87;21546;-66
2022/08/25 09:03:43;;;;;;;13.65;2.95;;;;;;;28.29;33.64;99459.66;1623187;86;21396;-66
2022/08/25 09:06:25;;;;;;;6.00;2.45;;;;;;;28.39;32.91;99466.93;1619900;87;20986;-67
2022/08/25 09:08:51;;;;;;;4.92;2.47;;;;;;;28.46;32.84;99458.02;1630748;86;21043;-65
2022/08/25 09:11:29;;;;;;;11.28;3.10;;;;;;;28.50;32.70;99453.16;1615458;87;21072;-65
2022/08/25 09:14:40;;;;;;;5.95;2.62;;;;;;;28.53;33.25;99458.16;1645090;86;21043;-66
2022/08/25 09:17:16;;;;;;;4.50;2.65;;;;;;;28.62;32.17;99458.91;1642953;85;21176;-67
2022/08/25 09:20:26;;;;;;;8.45;2.92;;;;;;;28.71;32.11;99467.20;1609299;86;21050;-67
2022/08/25 09:23:14;;;;;;;11.70;2.92;;;;;;;28.75;32.94;99463.17;1652152;86;20977;-65
2022/08/25 09:25:53;;;;;;;11.80;2.92;;;;;;;28.80;32.01;99454.09;1650801;87;21041;-66
2022/08/25 09:28:31;;;;;;;10.68;3.42;;;;;;;28.84;32.01;99449.22;1645364;86;20965;-67
2022/08/25 09:31:03;;;;;;;17.48;3.35;;;;;;;28.91;32.23;99444.31;1626346;86;21264;-66
2022/08/25 09:33:33;;;;;;;13.48;3.52;;;;;;;28.98;31.13;99441.20;1651188;85;21009;-65
2022/08/25 09:36:00;;;;;;;15.53;3.58;;;;;;;29.00;30.72;99443.20;1627257;86;21060;-65
2022/08/25 09:38:28;;;;;;;19.02;3.90;;;;;;;29.02;31.36;99438.50;1650862;86;21033;-65
2022/08/25 09:40:57;;;;;;;25.52;4.60;;;;;;;29.06;31.15;99441.65;1651008;86;21084;-65
2022/08/25 09:43:43;;;;;;;16.48;4.90;;;;;;;29.13;30.92;99435.90;1632908;87;21143;-65
2022/08/25 09:46:16;;;;;;;27.90;4.58;;;;;;;29.21;30.72;99432.28;1650689;86;21038;-65
2022/08/25 09:48:52;;;;;;;20.55;4.20;;;;;;;29.26;30.40;99447.30;1646517;86;21122;-65
2022/08/25 09:51:32;;;;;;;26.33;4.80;;;;;;;29.30;30.89;99433.88;1645229;87;21022;-64
2022/08/25 09:54:16;;;;;;;23.12;5.10;;;;;;;29.37;31.44;99431.62;1644624;87;20970;-64
2022/08/25 09:56:54;;;;;;;23.92;4.85;;;;;;;29.50;30.29;99430.98;1645182;85;21066;-67
2022/08/25 09:59:33;;;;;;;26.35;5.10;;;;;;;29.52;29.66;99422.77;1644553;87;21018;-65
2022/08/25 10:02:22;;;;;;;23.38;5.67;;;;;;;29.53;29.31;99420.41;1652542;86;21469;-65
2022/08/25 10:04:51;;;;;;;24.47;5.08;;;;;;;29.56;29.63;99415.52;1651607;85;20986;-65
2022/08/25 10:07:25;;;;;;;33.30;5.45;;;;;;;29.63;29.59;99408.88;1642052;86;21582;-66
2022/08/25 10:10:08;;;;;;;46.25;8.63;;;;;;;29.69;29.45;99418.34;1632803;87;21078;-66
2022/08/25 10:12:40;;;;;;;26.40;5.20;;;;;;;29.74;29.77;99413.27;1655781;86;21606;-66
2022/08/25 10:15:30;;;;;;;33.23;5.25;;;;;;;29.81;29.06;99410.64;1644004;85;21178;-66
2022/08/25 10:18:22;;;;;;;20.72;4.35;;;;;;;29.88;28.82;99416.92;1630246;86;21071;-66
2022/08/25 10:21:06;;;;;;;28.27;5.33;;;;;;;29.95;28.32;99407.11;1667267;85;21061;-66
2022/08/25 10:23:35;;;;;;;28.38;4.70;;;;;;;29.92;28.07;99411.51;1664134;85;21875;-65
2022/08/25 10:26:07;;;;;;;19.23;4.40;;;;;;;29.85;27.91;99418.64;1657252;86;21099;-66
2022/08/25 10:28:55;;;;;;;47.98;5.90;;;;;;;29.80;28.43;99421.05;1666363;85;21028;-65
2022/08/25 10:31:33;;;;;;;20.92;3.55;;;;;;;29.79;28.18;99424.23;1644494;85;20993;-65
2022/08/25 10:34:27;;;;;;;12.30;3.22;;;;;;;29.80;27.98;99415.68;1623915;85;21511;-66
2022/08/25 10:37:08;;;;;;;20.62;3.17;;;;;;;29.86;27.75;99400.70;1646383;85;22101;-66
2022/08/25 10:39:42;;;;;;;13.62;3.30;;;;;;;29.93;27.65;99414.52;1618518;86;21488;-65
2022/08/25 10:42:14;;;;;;;11.12;3.40;;;;;;;29.95;26.71;99408.97;1642860;86;20983;-65
2022/08/25 10:47:56;;;;;;;8.65;2.40;;;;;;;29.92;27.32;99408.00;1644078;85;21021;-65
2022/08/25 10:50:33;;;;;;;10.53;3.27;;;;;;;30.00;26.40;99399.34;1645643;86;21306;-65
2022/08/25 10:53:29;;;;;;;14.03;2.72;;;;;;;30.07;26.53;99398.91;1667175;84;21050;-65
2022/08/25 10:56:13;;;;;;;10.93;2.77;;;;;;;30.13;26.39;99404.03;1669699;85;21065;-65
2022/08/25 10:59:05;;;;;;;9.13;2.15;;;;;;;30.09;25.79;99404.92;1658189;85;21032;-66
2022/08/25 11:01:56;;;;;;;9.65;2.20;;;;;;;30.09;24.68;99398.72;1663874;86;21561;-66
2022/08/25 11:05:08;;;;;;;12.37;2.47;;;;;;;30.09;25.16;99394.19;1667960;86;21194;-66
2022/08/25 11:07:45;;;;;;;10.55;2.45;;;;;;;30.11;25.10;99393.49;1666535;84;21011;-65
2022/08/25 11:10:19;;;;;;;18.52;2.95;;;;;;;30.13;26.10;99395.47;1667888;85;21587;-65
2022/08/25 11:12:53;;;;;;;14.53;3.70;;;;;;;30.16;25.54;99383.53;1667953;84;21506;-65
2022/08/25 11:15:25;;;;;;;16.52;3.20;;;;;;;30.18;25.83;99376.09;1642983;86;21003;-65
2022/08/25 11:18:06;;;;;;;12.07;3.12;;;;;;;30.22;26.48;99376.05;1665892;85;21191;-67
2022/08/25 11:20:47;;;;;;;9.63;2.10;;;;;;;30.30;26.17;99384.48;1664985;85;21018;-66
2022/08/25 11:23:37;;;;;;;16.82;2.60;;;;;;;30.34;25.27;99373.18;1656089;85;20971;-66
2022/08/25 11:26:16;;;;;;;13.70;2.35;;;;;;;30.34;24.88;99365.13;1664536;85;21054;-65
2022/08/25 11:29:05;;;;;;;15.50;2.90;;;;;;;30.37;25.77;99361.23;1648992;86;21050;-66
2022/08/25 11:31:46;;;;;;;9.08;2.30;;;;;;;30.43;25.92;99348.37;1657533;85;21273;-65
2022/08/25 11:34:14;;;;;;;11.70;3.08;;;;;;;30.48;25.20;99357.50;1636699;85;21074;-65
2022/08/25 11:36:54;;;;;;;9.45;2.95;;;;;;;30.51;25.80;99367.02;1637764;87;20989;-65
2022/08/25 11:39:46;;;;;;;11.03;2.77;;;;;;;30.49;25.73;99354.31;1631505;86;20994;-65
2022/08/25 11:42:30;;;;;;;12.73;2.23;;;;;;;30.47;25.98;99357.19;1667053;86;21022;-65
2022/08/25 11:45:22;;;;;;;11.60;2.83;;;;;;;30.44;24.26;99357.56;1662466;85;21200;-65
2022/08/25 11:48:06;;;;;;;5.50;2.22;;;;;;;30.39;25.22;99356.48;1641539;86;21118;-65
2022/08/25 11:50:36;;;;;;;8.68;1.85;;;;;;;30.37;24.79;99348.66;1664266;86;21035;-65
2022/08/25 11:53:23;;;;;;;7.67;2.70;;;;;;;30.37;25.62;99345.14;1639692;86;21011;-66
2022/08/25 11:55:52;;;;;;;9.33;2.40;;;;;;;30.39;25.53;99348.42;1656927;85;20988;-65
2022/08/25 11:58:33;;;;;;;10.98;2.47;;;;;;;30.38;24.25;99340.89;1643832;86;21458;-66
2022/08/25 12:01:01;;;;;;;10.72;2.50;;;;;;;30.29;24.33;99338.04;1654407;86;20976;-66